sensor_id;sensor_type;location;lat;lon;timestamp;pressure;altitude;pressure_sealevel;temperature;humidity
28456;BME280;15682;56.742;38.866;2024-02-15T00:00:43;101250.0;;;-16.2;90.8
28456;BME280;15682;56.742;38.866;2024-02-15T00:02:43;101250.0;;;-16.2;90.8
28456;BME280;15682;56.742;38.866;2024-02-15T00:04:43;101250.0;;;-16.2;91.0
28456;BME280;15682;56.742;38.866;2024-02-15T00:06:42;101250.0;;;-16.2;91.0
28456;BME280;15682;56.742;38.866;2024-02-15T00:08:42;101250.0;;;-16.2;91.0
28456;BME280;15682;56.742;38.866;2024-02-15T00:10:41;101250.0;;;-16.2;91.0
28456;BME280;15682;56.742;38.866;2024-02-15T00:12:41;101250.0;;;-16.2;91.0
28456;BME280;15682;56.742;38.866;2024-02-15T00:14:41;101250.0;;;-16.2;91.3
28456;BME280;15682;56.742;38.866;2024-02-15T00:16:40;101250.0;;;-16.2;91.3
28456;BME280;15682;56.742;38.866;2024-02-15T00:18:40;101250.0;;;-16.2;91.3
28456;BME280;15682;56.742;38.866;2024-02-15T00:20:40;101250.0;;;-16.2;91.3
28456;BME280;15682;56.742;38.866;2024-02-15T00:22:39;101250.0;;;-16.2;91.3
28456;BME280;15682;56.742;38.866;2024-02-15T00:24:39;101250.0;;;-16.2;91.1
28456;BME280;15682;56.742;38.866;2024-02-15T00:26:38;101250.0;;;-16.3;91.1
28456;BME280;15682;56.742;38.866;2024-02-15T00:28:38;101250.0;;;-16.3;91.1
28456;BME280;15682;56.742;38.866;2024-02-15T00:30:37;101250.0;;;-16.3;91.1
28456;BME280;15682;56.742;38.866;2024-02-15T00:32:37;101250.0;;;-16.3;91.1
28456;BME280;15682;56.742;38.866;2024-02-15T00:34:37;101250.0;;;-16.3;91.1
28456;BME280;15682;56.742;38.866;2024-02-15T00:36:36;101250.0;;;-16.3;91.1
28456;BME280;15682;56.742;38.866;2024-02-15T00:38:36;101250.0;;;-16.3;91.1
28456;BME280;15682;56.742;38.866;2024-02-15T00:40:36;101250.0;;;-16.3;91.1
28456;BME280;15682;56.742;38.866;2024-02-15T00:42:35;101250.0;;;-16.3;91.1
28456;BME280;15682;56.742;38.866;2024-02-15T00:44:35;101250.0;;;-16.3;91.5
28456;BME280;15682;56.742;38.866;2024-02-15T00:46:34;101250.0;;;-16.3;91.5
28456;BME280;15682;56.742;38.866;2024-02-15T00:48:34;101250.0;;;-16.3;91.5
28456;BME280;15682;56.742;38.866;2024-02-15T00:50:33;101250.0;;;-16.3;91.5
28456;BME280;15682;56.742;38.866;2024-02-15T00:52:34;101250.0;;;-16.3;91.5
28456;BME280;15682;56.742;38.866;2024-02-15T00:54:33;101250.0;;;-16.3;91.5
28456;BME280;15682;56.742;38.866;2024-02-15T00:56:32;101250.0;;;-16.3;91.5
28456;BME280;15682;56.742;38.866;2024-02-15T00:58:32;101250.0;;;-16.2;91.5
28456;BME280;15682;56.742;38.866;2024-02-15T01:00:31;101250.0;;;-16.2;91.5
28456;BME280;15682;56.742;38.866;2024-02-15T01:02:31;101250.0;;;-16.2;91.5
28456;BME280;15682;56.742;38.866;2024-02-15T01:04:31;101250.0;;;-16.2;91.2
28456;BME280;15682;56.742;38.866;2024-02-15T01:06:30;101250.0;;;-16.3;91.2
28456;BME280;15682;56.742;38.866;2024-02-15T01:08:30;101250.0;;;-16.3;91.2
28456;BME280;15682;56.742;38.866;2024-02-15T01:10:30;101250.0;;;-16.3;91.8
28456;BME280;15682;56.742;38.866;2024-02-15T01:12:29;101250.0;;;-16.2;91.3
28456;BME280;15682;56.742;38.866;2024-02-15T01:14:29;101250.0;;;-16.2;91.3
28456;BME280;15682;56.742;38.866;2024-02-15T01:16:28;101250.0;;;-16.2;91.3
28456;BME280;15682;56.742;38.866;2024-02-15T01:18:28;101250.0;;;-16.2;91.3
28456;BME280;15682;56.742;38.866;2024-02-15T01:20:28;101250.0;;;-16.2;91.3
28456;BME280;15682;56.742;38.866;2024-02-15T01:22:27;101250.0;;;-16.2;91.3
28456;BME280;15682;56.742;38.866;2024-02-15T01:24:27;101250.0;;;-16.2;91.3
28456;BME280;15682;56.742;38.866;2024-02-15T01:26:27;101250.0;;;-16.2;91.3
28456;BME280;15682;56.742;38.866;2024-02-15T01:28:26;101250.0;;;-16.2;91.3
28456;BME280;15682;56.742;38.866;2024-02-15T01:30:26;101230.0;;;-16.2;91.3
28456;BME280;15682;56.742;38.866;2024-02-15T01:32:25;101230.0;;;-16.2;91.3
28456;BME280;15682;56.742;38.866;2024-02-15T01:34:25;101230.0;;;-16.2;91.3
28456;BME280;15682;56.742;38.866;2024-02-15T01:36:24;101230.0;;;-16.2;91.3
28456;BME280;15682;56.742;38.866;2024-02-15T01:38:24;101230.0;;;-16.2;91.3
28456;BME280;15682;56.742;38.866;2024-02-15T01:40:24;101230.0;;;-16.2;91.3
28456;BME280;15682;56.742;38.866;2024-02-15T01:42:23;101230.0;;;-16.2;91.3
28456;BME280;15682;56.742;38.866;2024-02-15T01:44:23;101230.0;;;-16.2;91.0
28456;BME280;15682;56.742;38.866;2024-02-15T01:46:23;101230.0;;;-16.2;91.0
28456;BME280;15682;56.742;38.866;2024-02-15T01:48:22;101230.0;;;-16.2;91.0
28456;BME280;15682;56.742;38.866;2024-02-15T01:50:23;101220.0;;;-16.2;91.0
28456;BME280;15682;56.742;38.866;2024-02-15T01:52:21;101220.0;;;-16.2;91.0
28456;BME280;15682;56.742;38.866;2024-02-15T01:54:21;101220.0;;;-16.2;91.2
28456;BME280;15682;56.742;38.866;2024-02-15T01:56:22;101220.0;;;-16.2;91.2
28456;BME280;15682;56.742;38.866;2024-02-15T01:58:21;101220.0;;;-16.2;91.2
28456;BME280;15682;56.742;38.866;2024-02-15T02:00:20;101220.0;;;-16.1;91.2
28456;BME280;15682;56.742;38.866;2024-02-15T02:02:21;101220.0;;;-16.1;91.2
28456;BME280;15682;56.742;38.866;2024-02-15T02:04:19;101220.0;;;-16.1;90.6
28456;BME280;15682;56.742;38.866;2024-02-15T02:06:19;101220.0;;;-16.0;91.5
28456;BME280;15682;56.742;38.866;2024-02-15T02:08:18;101220.0;;;-16.0;91.5
28456;BME280;15682;56.742;38.866;2024-02-15T02:10:18;101220.0;;;-16.0;91.5
28456;BME280;15682;56.742;38.866;2024-02-15T02:12:17;101220.0;;;-16.0;91.0
28456;BME280;15682;56.742;38.866;2024-02-15T02:14:17;101220.0;;;-16.0;91.0
28456;BME280;15682;56.742;38.866;2024-02-15T02:16:31;101220.0;;;-16.1;91.0
28456;BME280;15682;56.742;38.866;2024-02-15T02:18:16;101220.0;;;-16.1;91.0
28456;BME280;15682;56.742;38.866;2024-02-15T02:20:16;101220.0;;;-16.1;91.0
28456;BME280;15682;56.742;38.866;2024-02-15T02:22:16;101220.0;;;-16.1;91.0
28456;BME280;15682;56.742;38.866;2024-02-15T02:24:22;101220.0;;;-16.0;91.4
28456;BME280;15682;56.742;38.866;2024-02-15T02:26:15;101220.0;;;-16.1;91.4
28456;BME280;15682;56.742;38.866;2024-02-15T02:28:14;101220.0;;;-16.1;91.4
28456;BME280;15682;56.742;38.866;2024-02-15T02:30:15;101200.0;;;-16.1;91.4
28456;BME280;15682;56.742;38.866;2024-02-15T02:32:13;101200.0;;;-16.1;91.4
28456;BME280;15682;56.742;38.866;2024-02-15T02:34:13;101200.0;;;-16.1;91.3
28456;BME280;15682;56.742;38.866;2024-02-15T02:36:12;101200.0;;;-16.1;91.3
28456;BME280;15682;56.742;38.866;2024-02-15T02:38:13;101200.0;;;-16.1;91.5
28456;BME280;15682;56.742;38.866;2024-02-15T02:40:12;101200.0;;;-16.2;91.5
28456;BME280;15682;56.742;38.866;2024-02-15T02:42:11;101220.0;;;-16.2;91.5
28456;BME280;15682;56.742;38.866;2024-02-15T02:44:11;101220.0;;;-16.1;91.6
28456;BME280;15682;56.742;38.866;2024-02-15T02:46:11;101220.0;;;-16.1;91.6
28456;BME280;15682;56.742;38.866;2024-02-15T02:48:11;101220.0;;;-16.1;91.6
28456;BME280;15682;56.742;38.866;2024-02-15T02:50:10;101220.0;;;-16.1;91.6
28456;BME280;15682;56.742;38.866;2024-02-15T02:52:09;101220.0;;;-16.2;91.6
28456;BME280;15682;56.742;38.866;2024-02-15T02:54:09;101220.0;;;-16.2;91.5
28456;BME280;15682;56.742;38.866;2024-02-15T02:56:08;101220.0;;;-16.2;91.5
28456;BME280;15682;56.742;38.866;2024-02-15T02:58:08;101220.0;;;-16.2;91.5
28456;BME280;15682;56.742;38.866;2024-02-15T03:00:10;101220.0;;;-16.2;91.5
28456;BME280;15682;56.742;38.866;2024-02-15T03:02:07;101220.0;;;-16.0;91.5
28456;BME280;15682;56.742;38.866;2024-02-15T03:04:07;101220.0;;;-16.0;91.4
28456;BME280;15682;56.742;38.866;2024-02-15T03:06:07;101220.0;;;-16.0;91.4
28456;BME280;15682;56.742;38.866;2024-02-15T03:08:08;101220.0;;;-16.0;90.9
28456;BME280;15682;56.742;38.866;2024-02-15T03:10:07;101220.0;;;-16.0;90.9
28456;BME280;15682;56.742;38.866;2024-02-15T03:12:06;101220.0;;;-16.0;90.9
28456;BME280;15682;56.742;38.866;2024-02-15T03:14:05;101220.0;;;-16.0;91.2
28456;BME280;15682;56.742;38.866;2024-02-15T03:16:05;101220.0;;;-16.0;91.2
28456;BME280;15682;56.742;38.866;2024-02-15T03:18:04;101220.0;;;-16.0;91.2
28456;BME280;15682;56.742;38.866;2024-02-15T03:20:05;101220.0;;;-16.0;91.2
28456;BME280;15682;56.742;38.866;2024-02-15T03:22:04;101220.0;;;-15.9;91.2
28456;BME280;15682;56.742;38.866;2024-02-15T03:24:03;101220.0;;;-15.9;91.2
28456;BME280;15682;56.742;38.866;2024-02-15T03:26:03;101220.0;;;-15.9;91.2
28456;BME280;15682;56.742;38.866;2024-02-15T03:28:03;101220.0;;;-15.9;91.2
28456;BME280;15682;56.742;38.866;2024-02-15T03:30:02;101220.0;;;-15.9;91.2
28456;BME280;15682;56.742;38.866;2024-02-15T03:32:02;101220.0;;;-15.9;91.2
28456;BME280;15682;56.742;38.866;2024-02-15T03:34:01;101220.0;;;-15.9;91.0
28456;BME280;15682;56.742;38.866;2024-02-15T03:36:01;101220.0;;;-16.0;91.0
28456;BME280;15682;56.742;38.866;2024-02-15T03:38:01;101220.0;;;-16.0;91.0
28456;BME280;15682;56.742;38.866;2024-02-15T03:40:00;101230.0;;;-16.0;91.0
28456;BME280;15682;56.742;38.866;2024-02-15T03:42:00;101230.0;;;-16.0;91.0
28456;BME280;15682;56.742;38.866;2024-02-15T03:43:59;101230.0;;;-16.0;91.2
28456;BME280;15682;56.742;38.866;2024-02-15T03:45:59;101230.0;;;-15.8;91.2
28456;BME280;15682;56.742;38.866;2024-02-15T03:47:58;101240.0;;;-15.9;91.2
28456;BME280;15682;56.742;38.866;2024-02-15T03:49:58;101240.0;;;-15.9;91.2
28456;BME280;15682;56.742;38.866;2024-02-15T03:51:58;101240.0;;;-15.9;91.2
28456;BME280;15682;56.742;38.866;2024-02-15T03:53:57;101240.0;;;-15.9;90.9
28456;BME280;15682;56.742;38.866;2024-02-15T03:55:57;101240.0;;;-15.8;90.9
28456;BME280;15682;56.742;38.866;2024-02-15T03:57:57;101240.0;;;-15.7;90.9
28456;BME280;15682;56.742;38.866;2024-02-15T03:59:57;101240.0;;;-15.7;90.9
28456;BME280;15682;56.742;38.866;2024-02-15T04:01:56;101240.0;;;-15.7;90.9
28456;BME280;15682;56.742;38.866;2024-02-15T04:03:55;101240.0;;;-15.7;90.8
28456;BME280;15682;56.742;38.866;2024-02-15T04:05:55;101240.0;;;-15.8;90.8
28456;BME280;15682;56.742;38.866;2024-02-15T04:07:55;101240.0;;;-15.8;90.8
28456;BME280;15682;56.742;38.866;2024-02-15T04:09:54;101240.0;;;-15.8;90.8
28456;BME280;15682;56.742;38.866;2024-02-15T04:11:54;101240.0;;;-15.8;90.8
28456;BME280;15682;56.742;38.866;2024-02-15T04:13:54;101240.0;;;-15.8;91.0
28456;BME280;15682;56.742;38.866;2024-02-15T04:15:53;101240.0;;;-15.6;91.0
28456;BME280;15682;56.742;38.866;2024-02-15T04:17:53;101240.0;;;-15.6;91.0
28456;BME280;15682;56.742;38.866;2024-02-15T04:19:52;101240.0;;;-15.6;91.0
28456;BME280;15682;56.742;38.866;2024-02-15T04:21:52;101240.0;;;-15.6;91.0
28456;BME280;15682;56.742;38.866;2024-02-15T04:23:52;101240.0;;;-15.6;90.7
28456;BME280;15682;56.742;38.866;2024-02-15T04:25:51;101240.0;;;-15.5;90.7
28456;BME280;15682;56.742;38.866;2024-02-15T04:27:51;101240.0;;;-15.5;90.7
28456;BME280;15682;56.742;38.866;2024-02-15T04:29:50;101240.0;;;-15.5;90.7
28456;BME280;15682;56.742;38.866;2024-02-15T04:31:50;101240.0;;;-15.5;90.7
28456;BME280;15682;56.742;38.866;2024-02-15T04:33:50;101240.0;;;-15.5;90.6
28456;BME280;15682;56.742;38.866;2024-02-15T04:35:50;101240.0;;;-15.5;90.6
28456;BME280;15682;56.742;38.866;2024-02-15T04:37:50;101240.0;;;-15.5;90.6
28456;BME280;15682;56.742;38.866;2024-02-15T04:39:48;101240.0;;;-15.5;90.6
28456;BME280;15682;56.742;38.866;2024-02-15T04:41:48;101240.0;;;-15.4;90.6
28456;BME280;15682;56.742;38.866;2024-02-15T04:43:48;101240.0;;;-15.4;90.6
28456;BME280;15682;56.742;38.866;2024-02-15T04:45:47;101240.0;;;-15.4;90.4
28456;BME280;15682;56.742;38.866;2024-02-15T04:47:47;101240.0;;;-15.4;90.4
28456;BME280;15682;56.742;38.866;2024-02-15T04:49:47;101240.0;;;-15.4;90.4
28456;BME280;15682;56.742;38.866;2024-02-15T04:51:46;101240.0;;;-15.4;90.4
28456;BME280;15682;56.742;38.866;2024-02-15T04:53:46;101240.0;;;-15.4;90.6
28456;BME280;15682;56.742;38.866;2024-02-15T04:55:45;101240.0;;;-15.3;90.6
28456;BME280;15682;56.742;38.866;2024-02-15T04:57:45;101240.0;;;-15.2;90.6
28456;BME280;15682;56.742;38.866;2024-02-15T04:59:45;101240.0;;;-15.2;90.6
28456;BME280;15682;56.742;38.866;2024-02-15T05:01:44;101240.0;;;-15.2;90.6
28456;BME280;15682;56.742;38.866;2024-02-15T05:03:44;101240.0;;;-15.2;90.2
28456;BME280;15682;56.742;38.866;2024-02-15T05:05:44;101240.0;;;-15.2;90.2
28456;BME280;15682;56.742;38.866;2024-02-15T05:07:43;101230.0;;;-15.2;90.2
28456;BME280;15682;56.742;38.866;2024-02-15T05:09:43;101230.0;;;-15.2;90.2
28456;BME280;15682;56.742;38.866;2024-02-15T05:11:43;101230.0;;;-15.2;90.2
28456;BME280;15682;56.742;38.866;2024-02-15T05:13:42;101230.0;;;-15.1;90.0
28456;BME280;15682;56.742;38.866;2024-02-15T05:15:42;101230.0;;;-15.0;90.0
28456;BME280;15682;56.742;38.866;2024-02-15T05:17:41;101230.0;;;-15.0;89.8
28456;BME280;15682;56.742;38.866;2024-02-15T05:19:41;101230.0;;;-15.1;89.8
28456;BME280;15682;56.742;38.866;2024-02-15T05:21:41;101230.0;;;-15.1;89.8
28456;BME280;15682;56.742;38.866;2024-02-15T05:23:40;101230.0;;;-15.2;89.8
28456;BME280;15682;56.742;38.866;2024-02-15T05:25:40;101230.0;;;-15.2;89.8
28456;BME280;15682;56.742;38.866;2024-02-15T05:27:39;101230.0;;;-15.1;89.8
28456;BME280;15682;56.742;38.866;2024-02-15T05:29:39;101230.0;;;-15.0;89.8
28456;BME280;15682;56.742;38.866;2024-02-15T05:31:39;101240.0;;;-15.0;89.8
28456;BME280;15682;56.742;38.866;2024-02-15T05:33:38;101240.0;;;-14.8;91.5
28456;BME280;15682;56.742;38.866;2024-02-15T05:35:38;101240.0;;;-14.9;89.2
28456;BME280;15682;56.742;38.866;2024-02-15T05:37:38;101240.0;;;-15.0;89.2
28456;BME280;15682;56.742;38.866;2024-02-15T05:39:37;101240.0;;;-15.0;89.2
28456;BME280;15682;56.742;38.866;2024-02-15T05:41:37;101240.0;;;-15.0;89.2
28456;BME280;15682;56.742;38.866;2024-02-15T05:43:37;101240.0;;;-15.0;89.1
28456;BME280;15682;56.742;38.866;2024-02-15T05:45:36;101240.0;;;-14.8;89.1
28456;BME280;15682;56.742;38.866;2024-02-15T05:47:36;101240.0;;;-14.8;89.9
28456;BME280;15682;56.742;38.866;2024-02-15T05:49:35;101240.0;;;-14.8;89.2
28456;BME280;15682;56.742;38.866;2024-02-15T05:51:35;101240.0;;;-14.7;89.2
28456;BME280;15682;56.742;38.866;2024-02-15T05:53:35;101240.0;;;-14.7;89.0
28456;BME280;15682;56.742;38.866;2024-02-15T05:55:34;101240.0;;;-14.6;89.0
28456;BME280;15682;56.742;38.866;2024-02-15T05:57:34;101240.0;;;-14.7;89.0
28456;BME280;15682;56.742;38.866;2024-02-15T05:59:34;101240.0;;;-14.7;88.6
28456;BME280;15682;56.742;38.866;2024-02-15T06:01:33;101240.0;;;-14.7;88.6
28456;BME280;15682;56.742;38.866;2024-02-15T06:03:34;101250.0;;;-14.7;88.9
28456;BME280;15682;56.742;38.866;2024-02-15T06:05:32;101250.0;;;-14.7;89.3
28456;BME280;15682;56.742;38.866;2024-02-15T06:07:32;101250.0;;;-14.6;88.5
28456;BME280;15682;56.742;38.866;2024-02-15T06:09:32;101250.0;;;-14.6;89.1
28456;BME280;15682;56.742;38.866;2024-02-15T06:11:31;101250.0;;;-14.6;88.5
28456;BME280;15682;56.742;38.866;2024-02-15T06:13:31;101250.0;;;-14.6;88.4
28456;BME280;15682;56.742;38.866;2024-02-15T06:15:31;101250.0;;;-14.4;88.4
28456;BME280;15682;56.742;38.866;2024-02-15T06:17:30;101250.0;;;-14.4;88.4
28456;BME280;15682;56.742;38.866;2024-02-15T06:19:30;101260.0;;;-14.3;88.4
28456;BME280;15682;56.742;38.866;2024-02-15T06:21:29;101260.0;;;-14.6;88.4
28456;BME280;15682;56.742;38.866;2024-02-15T06:23:30;101260.0;;;-14.6;88.3
28456;BME280;15682;56.742;38.866;2024-02-15T06:25:29;101260.0;;;-14.5;88.3
28456;BME280;15682;56.742;38.866;2024-02-15T06:27:28;101260.0;;;-14.5;88.3
28456;BME280;15682;56.742;38.866;2024-02-15T06:29:28;101260.0;;;-14.5;88.3
28456;BME280;15682;56.742;38.866;2024-02-15T06:31:28;101260.0;;;-14.5;88.3
28456;BME280;15682;56.742;38.866;2024-02-15T06:33:27;101260.0;;;-14.5;88.5
28456;BME280;15682;56.742;38.866;2024-02-15T06:35:27;101260.0;;;-14.6;88.5
28456;BME280;15682;56.742;38.866;2024-02-15T06:37:41;101260.0;;;-14.6;89.0
28456;BME280;15682;56.742;38.866;2024-02-15T06:39:26;101270.0;;;-14.4;89.0
28456;BME280;15682;56.742;38.866;2024-02-15T06:41:26;101270.0;;;-14.4;89.6
28456;BME280;15682;56.742;38.866;2024-02-15T06:43:26;101270.0;;;-14.4;89.7
28456;BME280;15682;56.742;38.866;2024-02-15T06:45:25;101270.0;;;-14.5;89.7
28456;BME280;15682;56.742;38.866;2024-02-15T06:47:25;101270.0;;;-14.6;90.2
28456;BME280;15682;56.742;38.866;2024-02-15T06:49:25;101270.0;;;-14.6;90.2
28456;BME280;15682;56.742;38.866;2024-02-15T06:51:24;101270.0;;;-14.4;90.2
28456;BME280;15682;56.742;38.866;2024-02-15T06:53:24;101270.0;;;-14.4;90.3
28456;BME280;15682;56.742;38.866;2024-02-15T06:55:23;101270.0;;;-14.5;90.3
28456;BME280;15682;56.742;38.866;2024-02-15T06:57:23;101280.0;;;-14.5;90.3
28456;BME280;15682;56.742;38.866;2024-02-15T06:59:23;101280.0;;;-14.5;90.7
28456;BME280;15682;56.742;38.866;2024-02-15T07:01:24;101280.0;;;-14.5;90.7
28456;BME280;15682;56.742;38.866;2024-02-15T07:03:22;101290.0;;;-14.5;90.7
28456;BME280;15682;56.742;38.866;2024-02-15T07:05:22;101290.0;;;-14.4;90.7
28456;BME280;15682;56.742;38.866;2024-02-15T07:07:21;101290.0;;;-14.4;90.7
28456;BME280;15682;56.742;38.866;2024-02-15T07:09:21;101290.0;;;-14.3;90.7
28456;BME280;15682;56.742;38.866;2024-02-15T07:11:21;101290.0;;;-14.3;90.7
28456;BME280;15682;56.742;38.866;2024-02-15T07:13:20;101290.0;;;-14.4;90.8
28456;BME280;15682;56.742;38.866;2024-02-15T07:15:20;101300.0;;;-14.3;90.8
28456;BME280;15682;56.742;38.866;2024-02-15T07:17:20;101300.0;;;-14.3;90.8
28456;BME280;15682;56.742;38.866;2024-02-15T07:19:19;101300.0;;;-14.3;90.8
28456;BME280;15682;56.742;38.866;2024-02-15T07:21:19;101300.0;;;-14.3;90.8
28456;BME280;15682;56.742;38.866;2024-02-15T07:23:18;101300.0;;;-14.3;90.9
28456;BME280;15682;56.742;38.866;2024-02-15T07:25:18;101300.0;;;-14.2;90.9
28456;BME280;15682;56.742;38.866;2024-02-15T07:27:18;101300.0;;;-14.1;91.5
28456;BME280;15682;56.742;38.866;2024-02-15T07:29:17;101300.0;;;-14.1;91.5
28456;BME280;15682;56.742;38.866;2024-02-15T07:31:17;101310.0;;;-14.1;91.5
28456;BME280;15682;56.742;38.866;2024-02-15T07:33:17;101310.0;;;-14.1;91.1
28456;BME280;15682;56.742;38.866;2024-02-15T07:35:17;101310.0;;;-14.1;91.1
28456;BME280;15682;56.742;38.866;2024-02-15T07:37:16;101310.0;;;-14.1;91.1
28456;BME280;15682;56.742;38.866;2024-02-15T07:39:16;101320.0;;;-14.1;91.1
28456;BME280;15682;56.742;38.866;2024-02-15T07:41:16;101320.0;;;-14.1;91.1
28456;BME280;15682;56.742;38.866;2024-02-15T07:43:15;101320.0;;;-14.1;91.9
28456;BME280;15682;56.742;38.866;2024-02-15T07:45:15;101320.0;;;-14.2;91.9
28456;BME280;15682;56.742;38.866;2024-02-15T07:47:14;101320.0;;;-14.2;91.9
28456;BME280;15682;56.742;38.866;2024-02-15T07:49:14;101320.0;;;-14.2;91.9
28456;BME280;15682;56.742;38.866;2024-02-15T07:51:14;101320.0;;;-14.2;91.9
28456;BME280;15682;56.742;38.866;2024-02-15T07:53:13;101320.0;;;-14.2;92.0
28456;BME280;15682;56.742;38.866;2024-02-15T07:55:13;101320.0;;;-14.1;92.0
28456;BME280;15682;56.742;38.866;2024-02-15T07:57:12;101320.0;;;-14.1;92.0
28456;BME280;15682;56.742;38.866;2024-02-15T07:59:12;101320.0;;;-14.1;92.0
28456;BME280;15682;56.742;38.866;2024-02-15T08:01:12;101320.0;;;-14.0;92.0
28456;BME280;15682;56.742;38.866;2024-02-15T08:03:11;101320.0;;;-14.0;92.3
28456;BME280;15682;56.742;38.866;2024-02-15T08:05:12;101320.0;;;-14.0;92.3
28456;BME280;15682;56.742;38.866;2024-02-15T08:07:11;101320.0;;;-14.0;92.3
28456;BME280;15682;56.742;38.866;2024-02-15T08:09:10;101320.0;;;-13.9;92.3
28456;BME280;15682;56.742;38.866;2024-02-15T08:11:10;101320.0;;;-14.0;92.3
28456;BME280;15682;56.742;38.866;2024-02-15T08:13:10;101320.0;;;-14.0;91.8
28456;BME280;15682;56.742;38.866;2024-02-15T08:15:10;101320.0;;;-14.0;91.8
28456;BME280;15682;56.742;38.866;2024-02-15T08:17:09;101320.0;;;-14.0;91.8
28456;BME280;15682;56.742;38.866;2024-02-15T08:19:09;101320.0;;;-14.1;91.8
28456;BME280;15682;56.742;38.866;2024-02-15T08:21:08;101320.0;;;-14.1;91.8
28456;BME280;15682;56.742;38.866;2024-02-15T08:23:08;101320.0;;;-14.0;91.2
28456;BME280;15682;56.742;38.866;2024-02-15T08:25:09;101320.0;;;-13.8;91.2
28456;BME280;15682;56.742;38.866;2024-02-15T08:27:07;101320.0;;;-13.7;91.2
28456;BME280;15682;56.742;38.866;2024-02-15T08:29:07;101320.0;;;-13.7;91.2
28456;BME280;15682;56.742;38.866;2024-02-15T08:31:06;101320.0;;;-13.7;91.2
28456;BME280;15682;56.742;38.866;2024-02-15T08:33:06;101320.0;;;-13.7;91.2
28456;BME280;15682;56.742;38.866;2024-02-15T08:35:06;101320.0;;;-13.7;91.2
28456;BME280;15682;56.742;38.866;2024-02-15T08:37:06;101320.0;;;-13.8;90.8
28456;BME280;15682;56.742;38.866;2024-02-15T08:39:05;101320.0;;;-13.9;90.8
28456;BME280;15682;56.742;38.866;2024-02-15T08:41:05;101320.0;;;-13.9;90.8
28456;BME280;15682;56.742;38.866;2024-02-15T08:43:04;101320.0;;;-13.9;91.4
28456;BME280;15682;56.742;38.866;2024-02-15T08:45:05;101320.0;;;-13.9;91.4
28456;BME280;15682;56.742;38.866;2024-02-15T08:47:04;101320.0;;;-13.9;91.4
28456;BME280;15682;56.742;38.866;2024-02-15T08:49:03;101320.0;;;-14.0;91.4
28456;BME280;15682;56.742;38.866;2024-02-15T08:51:03;101320.0;;;-14.0;91.4
28456;BME280;15682;56.742;38.866;2024-02-15T08:53:03;101320.0;;;-14.0;91.4
28456;BME280;15682;56.742;38.866;2024-02-15T08:55:02;101320.0;;;-14.0;91.4
28456;BME280;15682;56.742;38.866;2024-02-15T08:57:02;101320.0;;;-14.0;91.4
28456;BME280;15682;56.742;38.866;2024-02-15T08:59:01;101320.0;;;-13.7;91.4
28456;BME280;15682;56.742;38.866;2024-02-15T09:01:01;101320.0;;;-13.9;91.4
28456;BME280;15682;56.742;38.866;2024-02-15T09:03:01;101320.0;;;-13.9;91.5
28456;BME280;15682;56.742;38.866;2024-02-15T09:05:00;101320.0;;;-13.7;91.5
28456;BME280;15682;56.742;38.866;2024-02-15T09:07:00;101320.0;;;-13.8;91.5
28456;BME280;15682;56.742;38.866;2024-02-15T09:09:00;101320.0;;;-13.8;91.5
28456;BME280;15682;56.742;38.866;2024-02-15T09:11:00;101320.0;;;-13.8;91.5
28456;BME280;15682;56.742;38.866;2024-02-15T09:12:59;101320.0;;;-13.7;91.7
28456;BME280;15682;56.742;38.866;2024-02-15T09:14:59;101320.0;;;-13.6;91.7
28456;BME280;15682;56.742;38.866;2024-02-15T09:16:59;101320.0;;;-13.6;90.8
28456;BME280;15682;56.742;38.866;2024-02-15T09:18:58;101330.0;;;-13.7;90.8
28456;BME280;15682;56.742;38.866;2024-02-15T09:20:58;101330.0;;;-13.7;90.8
28456;BME280;15682;56.742;38.866;2024-02-15T09:22:57;101340.0;;;-13.6;90.9
28456;BME280;15682;56.742;38.866;2024-02-15T09:24:57;101340.0;;;-13.7;90.9
28456;BME280;15682;56.742;38.866;2024-02-15T09:26:57;101350.0;;;-13.7;90.9
28456;BME280;15682;56.742;38.866;2024-02-15T09:28:56;101350.0;;;-13.7;90.9
28456;BME280;15682;56.742;38.866;2024-02-15T09:30:56;101350.0;;;-13.9;90.9
28456;BME280;15682;56.742;38.866;2024-02-15T09:32:56;101330.0;;;-13.9;91.0
28456;BME280;15682;56.742;38.866;2024-02-15T09:34:55;101320.0;;;-13.9;91.3
28456;BME280;15682;56.742;38.866;2024-02-15T09:36:55;101310.0;;;-14.0;91.3
28456;BME280;15682;56.742;38.866;2024-02-15T09:38:55;101310.0;;;-13.8;91.9
28456;BME280;15682;56.742;38.866;2024-02-15T09:40:54;101310.0;;;-13.7;91.3
28456;BME280;15682;56.742;38.866;2024-02-15T09:42:54;101310.0;;;-13.8;91.2
28456;BME280;15682;56.742;38.866;2024-02-15T09:44:54;101300.0;;;-13.8;91.2
28456;BME280;15682;56.742;38.866;2024-02-15T09:47:02;101290.0;;;-13.8;91.2
28456;BME280;15682;56.742;38.866;2024-02-15T09:48:55;101290.0;;;-13.8;90.7
28456;BME280;15682;56.742;38.866;2024-02-15T09:50:53;101290.0;;;-13.8;90.7
28456;BME280;15682;56.742;38.866;2024-02-15T09:52:53;101290.0;;;-13.8;90.9
28456;BME280;15682;56.742;38.866;2024-02-15T09:54:53;101290.0;;;-13.6;90.9
28456;BME280;15682;56.742;38.866;2024-02-15T09:56:52;101290.0;;;-13.6;90.9
28456;BME280;15682;56.742;38.866;2024-02-15T09:58:51;101290.0;;;-13.6;90.9
28456;BME280;15682;56.742;38.866;2024-02-15T10:00:51;101290.0;;;-13.6;90.9
28456;BME280;15682;56.742;38.866;2024-02-15T10:02:51;101290.0;;;-13.6;91.3
28456;BME280;15682;56.742;38.866;2024-02-15T10:04:50;101290.0;;;-13.6;91.3
28456;BME280;15682;56.742;38.866;2024-02-15T10:06:50;101290.0;;;-13.5;91.3
28456;BME280;15682;56.742;38.866;2024-02-15T10:08:50;101290.0;;;-13.5;91.3
28456;BME280;15682;56.742;38.866;2024-02-15T10:11:05;101290.0;;;-13.4;91.3
28456;BME280;15682;56.742;38.866;2024-02-15T10:12:49;101290.0;;;-13.3;91.3
28456;BME280;15682;56.742;38.866;2024-02-15T10:14:49;101290.0;;;-13.3;91.1
28456;BME280;15682;56.742;38.866;2024-02-15T10:16:48;101290.0;;;-13.0;90.7
28456;BME280;15682;56.742;38.866;2024-02-15T10:18:48;101290.0;;;-13.0;90.7
28456;BME280;15682;56.742;38.866;2024-02-15T10:20:57;101290.0;;;-13.0;90.1
28456;BME280;15682;56.742;38.866;2024-02-15T10:22:47;101290.0;;;-12.9;90.1
28456;BME280;15682;56.742;38.866;2024-02-15T10:24:47;101290.0;;;-12.9;89.9
28456;BME280;15682;56.742;38.866;2024-02-15T10:26:48;101290.0;;;-12.7;89.9
28456;BME280;15682;56.742;38.866;2024-02-15T10:28:46;101290.0;;;-12.9;89.4
28456;BME280;15682;56.742;38.866;2024-02-15T10:30:46;101290.0;;;-12.9;89.4
28456;BME280;15682;56.742;38.866;2024-02-15T10:32:46;101290.0;;;-12.9;89.4